Nearby METAR Reports

 

KSJC - San Jose, California, USA
Distance from station: NE 14km
Updated: 19/02/2018 06:53
Few Clouds
Few Clouds
 Wind from W
Wind: W 30 km/h
Temperature: 8°C
Wind Chill: 4°C
Dew Point: 0°C
Humidity: 57%
Barometer: 1015.6 hPa
Clouds: Few Clouds
Visibility: 16 km
Cloud details: Few Clouds 427 m
2018/02/19 06:53 KSJC 190653Z 27016KT 10SM FEW014 08/00 A2999 RMK AO2 SLP154 T00780000
KNUQ - Moffett Nas/Mtn, California, USA
Distance from station: N 14km
Updated: 19/02/2018 06:56
Clear
Clear
 Wind from W
Wind: W 17 km/h, Gust: 26 km/h
Temperature: 7°C
Wind Chill: 4°C
Dew Point: 1°C
Humidity: 66%
Barometer: 1015.9 hPa
Clouds: Clear
Visibility: 16 km
2018/02/19 06:56 KNUQ 190656Z 28009G14KT 10SM CLR 07/01 A3000 RMK AO2 SLP161 T00720006
 
KPAO - Palo Alto, California, USA
Distance from station: NNW 23km
Updated: 19/02/2018 04:47
NOT Current
Few Clouds
Few Clouds
 Wind from W
Wind: W 28 km/h
Clouds: Few Clouds
Visibility: 16 km
Cloud details: Few Clouds 1067 m
2018/02/19 04:47 KPAO 190447Z 28015KT 10SM FEW035 --/-- A2998 RMK LAST
KRHV - San Jose/Reid, California, USA
Distance from station: ENE 19km
Updated: 19/02/2018 05:47
NOT Current
Mostly cloudy
Mostly cloudy
 Wind from NNW
Wind: NNW 19 km/h
Temperature: 6°C
Wind Chill: 3°C
Dew Point: 1°C
Humidity: 71%
Barometer: 1014.9 hPa
Clouds: Mostly cloudy
Visibility: 13 km
Cloud details: Mostly cloudy 1067 m
2018/02/19 05:47 KRHV 190547Z 33010KT 8SM BKN035 06/01 A2997 RMK LAST
 
KOAK - Oakland, California, USA
Distance from station: NNW 50km
Updated: 19/02/2018 06:53
Few Clouds
Few Clouds
 Wind from NW
Wind: NW 31 km/h, Gust: 41 km/h
Temperature: 7°C
Wind Chill: 3°C
Dew Point: -1°C
Humidity: 57%
Barometer: 1015.2 hPa
Clouds: Few Clouds
Visibility: 16 km
Cloud details: Few Clouds 671 m
Few Clouds 1219 m
2018/02/19 06:53 KOAK 190653Z 31017G22KT 10SM FEW022 FEW040 07/M01 A2998 RMK AO2 SLP151 T00671011
KSQL - San Carlos Airpo, California, USA
Distance from station: NW 34km
Updated: 19/02/2018 07:35
Few Clouds
Few Clouds
 Wind from WNW
Wind: WNW 17 km/h, Gust: 28 km/h
Temperature: 7°C
Wind Chill: 4°C
Dew Point: 0°C
Humidity: 61%
Barometer: 1015.9 hPa
Clouds: Few Clouds
Visibility: 16 km
Cloud details: Few Clouds 2134 m
2018/02/19 07:35 KSQL 190735Z AUTO 29009G15KT 10SM FEW070 07/00 A3000 RMK AO2
 
KSFO - San Francisco, California, USA
Distance from station: NW 49km
Updated: 19/02/2018 06:56
Few Clouds
Few Clouds
 Wind from NW
Wind: NW 28 km/h, Gust: 37 km/h
Temperature: 8°C
Wind Chill: 4°C
Dew Point: -1°C
Humidity: 53%
Barometer: 1015.9 hPa
Clouds: Few Clouds
Visibility: 16 km
Cloud details: Few Clouds 518 m
2018/02/19 06:56 KSFO 190656Z 31015G20KT 10SM FEW017 08/M01 A3000 RMK AO2 PK WND 30028/0619 SLP157 T00781006 $
KE16 - San Martin, California, USA
Distance from station: ESE 43km
Updated: 19/02/2018 07:35
Partly cloudy
Partly cloudy
 Wind from NNW
Wind: NNW 11 km/h
Temperature: 5°C
Wind Chill: 2°C
Dew Point: 0°C
Humidity: 70%
Barometer: 1015.9 hPa
Clouds: Partly cloudy
Visibility: 16 km
Cloud details: Few Clouds 914 m
Partly cloudy 1097 m
2018/02/19 07:35 KE16 190735Z AUTO 33006KT 10SM FEW030 SCT036 05/00 A3000 RMK AO2
 
KWVI - Watsonville, California, USA
Distance from station: SSE 44km
Updated: 19/02/2018 06:53
Clear
Clear
 Wind from WSW
Wind: WSW 9 km/h
Temperature: 5°C
Wind Chill: 3°C
Dew Point: 0°C
Humidity: 70%
Barometer: 1015.9 hPa
Clouds: Clear
Visibility: 16 km
2018/02/19 06:53 KWVI 190653Z AUTO 25005KT 10SM CLR 05/00 A3000 RMK AO2 SLP158 T00500000
KHAF - Half Moon Bay, California, USA
Distance from station: WNW 50km
Updated: 19/02/2018 07:35
Mostly cloudy
Mostly cloudy
 Wind from NNW
Wind: NNW 30 km/h, Gust: 43 km/h
Temperature: 7°C
Wind Chill: 3°C
Dew Point: 2°C
Humidity: 71%
Barometer: 1015.2 hPa
Clouds: Mostly cloudy
Visibility: 13 km
Cloud details: Partly cloudy 853 m
Mostly cloudy 1067 m
2018/02/19 07:35 KHAF 190735Z AUTO 34016G23KT 8SM SCT028 BKN035 07/02 A2998 RMK AO2
 
KHWD - Hayward, California, USA
Distance from station: N 44km
Updated: 19/02/2018 06:54
Clear
Clear
 Wind from NW
Wind: NW 24 km/h
Temperature: 7°C
Wind Chill: 3°C
Dew Point: -3°C
Humidity: 49%
Barometer: 1015.2 hPa
Clouds: Clear
Visibility: 16 km
2018/02/19 06:54 KHWD 190654Z AUTO 32013KT 10SM CLR 07/M03 A2998 RMK AO2 SLP162 T00721028
KLVK - Livermore, California, USA
Distance from station: NNE 51km
Updated: 19/02/2018 06:53
Clear
Clear
 Wind from W
Wind: W 19 km/h
Temperature: 5°C
Wind Chill: 1°C
Dew Point: -2°C
Humidity: 61%
Barometer: 1014.2 hPa
Clouds: Clear
Visibility: 16 km
2018/02/19 06:53 KLVK 190653Z AUTO 28010KT 10SM CLR 05/M02 A2995 RMK AO2 SLP143 T00501022